PRIVATE WETTERSTATION BILLIGHEIM-ALLFELD                       ZURCK
Wetterdaten: Sonntag, 21.09.2014
Datum Zeit Temp. A. Temp. A. min Temp. A. max Feuchte A. Luftdruck Regen Wind Richtung Richtung Sonnenschein ET Solar Taupunkt Windchill Windben Empfang
21.09.2014 00:00 15,1 C 15,0 C 15,1 C 90 % 1014,6 hPa 0,0 l/m 0,0 km/h (0 Bft) N 0 0 min 0,000 mm 0 W/m 13,5 C 15,1 C 0,0 km/h (0 Bft) 100 %
21.09.2014 00:10 15,0 C 15,0 C 15,1 C 90 % 1014,6 hPa 0,0 l/m 0,0 km/h (0 Bft) N 0 0 min 0,000 mm 0 W/m 13,4 C 15,0 C 0,0 km/h (0 Bft) 100 %
21.09.2014 00:20 15,1 C 15,0 C 15,1 C 90 % 1014,4 hPa 0,0 l/m 0,0 km/h (0 Bft) N 0 0 min 0,000 mm 0 W/m 13,5 C 15,1 C 0,0 km/h (0 Bft) 100 %
21.09.2014 00:30 14,8 C 14,8 C 15,1 C 90 % 1014,2 hPa 0,0 l/m 0,0 km/h (0 Bft) N 0 0 min 0,000 mm 0 W/m 13,2 C 14,8 C 0,0 km/h (0 Bft) 100 %
21.09.2014 00:40 14,6 C 14,6 C 14,8 C 90 % 1014,2 hPa 0,0 l/m 0,0 km/h (0 Bft) N 0 0 min 0,000 mm 0 W/m 13,0 C 14,6 C 0,0 km/h (0 Bft) 100 %
21.09.2014 00:50 14,5 C 14,5 C 14,6 C 90 % 1014,0 hPa 0,0 l/m 0,0 km/h (0 Bft) O-NO 67 0 min 0,000 mm 0 W/m 12,9 C 14,5 C 4,8 km/h (1 Bft) 100 %
21.09.2014 01:00 14,3 C 14,3 C 14,5 C 90 % 1014,1 hPa 0,0 l/m 0,0 km/h (0 Bft) O-NO 67 0 min 0,000 mm 0 W/m 12,7 C 14,3 C 3,2 km/h (1 Bft) 100 %
21.09.2014 01:10 14,3 C 14,3 C 14,3 C 90 % 1014,1 hPa 0,0 l/m 0,0 km/h (0 Bft) O 90 0 min 0,000 mm 0 W/m 12,7 C 14,3 C 1,6 km/h (1 Bft) 100 %
21.09.2014 01:20 14,3 C 14,3 C 14,3 C 90 % 1014,3 hPa 0,0 l/m 0,0 km/h (0 Bft) O 90 0 min 0,000 mm 0 W/m 12,7 C 14,3 C 1,6 km/h (1 Bft) 100 %
21.09.2014 01:30 14,2 C 14,2 C 14,3 C 90 % 1014,3 hPa 0,0 l/m 0,0 km/h (0 Bft) O 90 0 min 0,000 mm 0 W/m 12,6 C 14,2 C 1,6 km/h (1 Bft) 100 %
21.09.2014 01:40 14,3 C 14,3 C 14,3 C 90 % 1014,2 hPa 0,0 l/m 0,0 km/h (0 Bft) O 90 0 min 0,000 mm 0 W/m 12,7 C 14,3 C 1,6 km/h (1 Bft) 100 %
21.09.2014 01:50 14,3 C 14,3 C 14,4 C 90 % 1014,4 hPa 0,0 l/m 0,0 km/h (0 Bft) O-SO 112 0 min 0,000 mm 0 W/m 12,7 C 14,3 C 4,8 km/h (1 Bft) 100 %
21.09.2014 02:00 14,4 C 14,4 C 14,4 C 90 % 1014,8 hPa 0,0 l/m 1,6 km/h (1 Bft) W-NW 292 0 min 0,000 mm 0 W/m 12,8 C 14,4 C 11,3 km/h (2 Bft) 100 %
21.09.2014 02:10 14,7 C 14,4 C 14,7 C 90 % 1014,2 hPa 2,0 l/m 1,6 km/h (1 Bft) W 270 0 min 0,000 mm 0 W/m 13,1 C 14,7 C 11,3 km/h (2 Bft) 100 %
21.09.2014 02:20 14,8 C 14,7 C 14,8 C 90 % 1014,2 hPa 1,6 l/m 1,6 km/h (1 Bft) W-SW 247 0 min 0,000 mm 0 W/m 13,2 C 14,8 C 6,4 km/h (2 Bft) 100 %
21.09.2014 02:30 14,9 C 14,8 C 14,9 C 90 % 1014,1 hPa 0,4 l/m 0,0 km/h (0 Bft) N-NO 22 0 min 0,000 mm 0 W/m 13,3 C 14,9 C 1,6 km/h (1 Bft) 100 %
21.09.2014 02:40 14,9 C 14,9 C 14,9 C 90 % 1014,2 hPa 0,0 l/m 0,0 km/h (0 Bft) N-NO 22 0 min 0,000 mm 0 W/m 13,3 C 14,9 C 1,6 km/h (1 Bft) 100 %
21.09.2014 02:50 14,9 C 14,9 C 14,9 C 90 % 1014,5 hPa 0,4 l/m 0,0 km/h (0 Bft) N-NO 22 0 min 0,000 mm 0 W/m 13,3 C 14,9 C 1,6 km/h (1 Bft) 100 %
21.09.2014 03:00 15,0 C 14,9 C 15,1 C 90 % 1014,4 hPa 0,4 l/m 0,0 km/h (0 Bft) N-NO 22 0 min 0,000 mm 0 W/m 13,4 C 15,0 C 3,2 km/h (1 Bft) 100 %
21.09.2014 03:10 15,0 C 14,9 C 15,0 C 90 % 1014,3 hPa 0,4 l/m 0,0 km/h (0 Bft) N-NO 22 0 min 0,000 mm 0 W/m 13,4 C 15,0 C 3,2 km/h (1 Bft) 100 %
21.09.2014 03:20 14,9 C 14,9 C 15,0 C 90 % 1014,3 hPa 0,6 l/m 0,0 km/h (0 Bft) N 0 0 min 0,000 mm 0 W/m 13,3 C 14,9 C 0,0 km/h (0 Bft) 99 %
21.09.2014 03:30 14,9 C 14,9 C 14,9 C 90 % 1014,1 hPa 0,4 l/m 3,2 km/h (1 Bft) SO 135 0 min 0,000 mm 0 W/m 13,3 C 14,9 C 9,7 km/h (2 Bft) 100 %
21.09.2014 03:40 14,8 C 14,8 C 14,9 C 90 % 1013,8 hPa 0,2 l/m 3,2 km/h (1 Bft) SO 135 0 min 0,000 mm 0 W/m 13,2 C 14,8 C 8,0 km/h (2 Bft) 100 %
21.09.2014 03:50 14,7 C 14,7 C 14,8 C 90 % 1013,9 hPa 0,0 l/m 0,0 km/h (0 Bft) S-SO 157 0 min 0,000 mm 0 W/m 13,1 C 14,7 C 3,2 km/h (1 Bft) 100 %
21.09.2014 04:00 14,7 C 14,7 C 14,7 C 90 % 1013,9 hPa 0,0 l/m 0,0 km/h (0 Bft) S-SW 202 0 min 0,000 mm 0 W/m 13,1 C 14,7 C 3,2 km/h (1 Bft) 100 %
21.09.2014 04:10 14,7 C 14,6 C 14,7 C 90 % 1014,0 hPa 0,0 l/m 1,6 km/h (1 Bft) S-SW 202 0 min 0,000 mm 0 W/m 13,1 C 14,7 C 6,4 km/h (2 Bft) 100 %
21.09.2014 04:20 14,7 C 14,6 C 14,7 C 90 % 1014,2 hPa 0,0 l/m 1,6 km/h (1 Bft) S-SO 157 0 min 0,000 mm 0 W/m 13,1 C 14,7 C 6,4 km/h (2 Bft) 100 %
21.09.2014 04:30 14,7 C 14,7 C 14,7 C 90 % 1013,9 hPa 0,4 l/m 4,8 km/h (1 Bft) S-SO 157 0 min 0,000 mm 0 W/m 13,1 C 14,7 C 11,3 km/h (2 Bft) 100 %
21.09.2014 04:40 14,7 C 14,7 C 14,7 C 90 % 1013,7 hPa 0,4 l/m 3,2 km/h (1 Bft) S-SO 157 0 min 0,000 mm 0 W/m 13,1 C 14,7 C 9,7 km/h (2 Bft) 100 %
21.09.2014 04:50 14,7 C 14,7 C 14,7 C 90 % 1013,7 hPa 0,0 l/m 1,6 km/h (1 Bft) S 180 0 min 0,000 mm 0 W/m 13,1 C 14,7 C 6,4 km/h (2 Bft) 100 %
21.09.2014 05:00 14,7 C 14,7 C 14,7 C 89 % 1013,3 hPa 0,0 l/m 0,0 km/h (0 Bft) N 0 0 min 0,000 mm 0 W/m 12,9 C 14,7 C 0,0 km/h (0 Bft) 100 %
21.09.2014 05:10 14,7 C 14,7 C 14,7 C 89 % 1013,1 hPa 0,0 l/m 0,0 km/h (0 Bft) S-SO 157 0 min 0,000 mm 0 W/m 12,9 C 14,7 C 3,2 km/h (1 Bft) 100 %
21.09.2014 05:20 14,7 C 14,7 C 14,7 C 90 % 1013,1 hPa 0,0 l/m 0,0 km/h (0 Bft) N 0 0 min 0,000 mm 0 W/m 13,1 C 14,7 C 0,0 km/h (0 Bft) 100 %
21.09.2014 05:30 14,6 C 14,6 C 14,7 C 90 % 1013,3 hPa 0,0 l/m 0,0 km/h (0 Bft) S-SO 157 0 min 0,000 mm 0 W/m 13,0 C 14,6 C 1,6 km/h (1 Bft) 100 %
21.09.2014 05:40 14,6 C 14,6 C 14,7 C 90 % 1013,4 hPa 0,0 l/m 0,0 km/h (0 Bft) S-SO 157 0 min 0,000 mm 0 W/m 13,0 C 14,6 C 3,2 km/h (1 Bft) 100 %
21.09.2014 05:50 14,6 C 14,6 C 14,6 C 90 % 1013,3 hPa 0,0 l/m 1,6 km/h (1 Bft) S 180 0 min 0,000 mm 0 W/m 13,0 C 14,6 C 4,8 km/h (1 Bft) 100 %
21.09.2014 06:00 14,7 C 14,6 C 14,7 C 90 % 1013,3 hPa 0,0 l/m 0,0 km/h (0 Bft) S 180 0 min 0,000 mm 0 W/m 13,1 C 14,7 C 4,8 km/h (1 Bft) 100 %
21.09.2014 06:10 14,6 C 14,6 C 14,7 C 90 % 1013,1 hPa 0,0 l/m 0,0 km/h (0 Bft) S 180 0 min 0,000 mm 0 W/m 13,0 C 14,6 C 1,6 km/h (1 Bft) 99 %
21.09.2014 06:20 14,5 C 14,5 C 14,6 C 90 % 1013,2 hPa 0,0 l/m 0,0 km/h (0 Bft) S 180 0 min 0,000 mm 0 W/m 12,9 C 14,5 C 3,2 km/h (1 Bft) 100 %
21.09.2014 06:30 14,6 C 14,5 C 14,6 C 90 % 1013,3 hPa 0,0 l/m 0,0 km/h (0 Bft) S 180 0 min 0,000 mm 0 W/m 13,0 C 14,6 C 1,6 km/h (1 Bft) 100 %
21.09.2014 06:40 14,5 C 14,5 C 14,6 C 90 % 1013,5 hPa 0,0 l/m 0,0 km/h (0 Bft) S 180 0 min 0,000 mm 0 W/m 12,9 C 14,5 C 1,6 km/h (1 Bft) 100 %
21.09.2014 06:50 14,6 C 14,5 C 14,6 C 90 % 1013,6 hPa 0,0 l/m 0,0 km/h (0 Bft) S 180 0 min 0,000 mm 0 W/m 13,0 C 14,6 C 3,2 km/h (1 Bft) 100 %
21.09.2014 07:00 14,6 C 14,6 C 14,6 C 90 % 1013,4 hPa 0,0 l/m 0,0 km/h (0 Bft) S 180 0 min 0,000 mm 0 W/m 13,0 C 14,6 C 3,2 km/h (1 Bft) 100 %
21.09.2014 07:10 14,6 C 14,6 C 14,6 C 90 % 1013,4 hPa 0,2 l/m 0,0 km/h (0 Bft) S 180 0 min 0,000 mm 0 W/m 13,0 C 14,6 C 4,8 km/h (1 Bft) 99 %
21.09.2014 07:20 14,6 C 14,6 C 14,6 C 90 % 1013,4 hPa 0,2 l/m 0,0 km/h (0 Bft) S 180 0 min 0,000 mm 0 W/m 13,0 C 14,6 C 1,6 km/h (1 Bft) 100 %
21.09.2014 07:30 14,6 C 14,6 C 14,6 C 90 % 1013,4 hPa 0,4 l/m 0,0 km/h (0 Bft) S 180 0 min 0,000 mm 0 W/m 13,0 C 14,6 C 1,6 km/h (1 Bft) 100 %
21.09.2014 07:40 14,6 C 14,6 C 14,6 C 90 % 1013,4 hPa 0,6 l/m 0,0 km/h (0 Bft) S 180 0 min 0,000 mm 7 W/m 13,0 C 14,6 C 4,8 km/h (1 Bft) 100 %
21.09.2014 07:50 14,6 C 14,6 C 14,6 C 90 % 1013,4 hPa 0,4 l/m 0,0 km/h (0 Bft) S 180 0 min 0,000 mm 19 W/m 13,0 C 14,6 C 4,8 km/h (1 Bft) 100 %
21.09.2014 08:00 14,7 C 14,6 C 14,7 C 90 % 1013,4 hPa 0,2 l/m 0,0 km/h (0 Bft) S 180 0 min 0,000 mm 26 W/m 13,1 C 14,7 C 1,6 km/h (1 Bft) 100 %
21.09.2014 08:10 14,7 C 14,7 C 14,7 C 90 % 1013,4 hPa 0,2 l/m 0,0 km/h (0 Bft) S 180 0 min 0,000 mm 32 W/m 13,1 C 14,7 C 3,2 km/h (1 Bft) 100 %
21.09.2014 08:20 14,7 C 14,7 C 14,7 C 90 % 1013,4 hPa 0,0 l/m 0,0 km/h (0 Bft) S 180 0 min 0,000 mm 33 W/m 13,1 C 14,7 C 1,6 km/h (1 Bft) 100 %
21.09.2014 08:30 14,7 C 14,7 C 14,8 C 90 % 1013,4 hPa 0,6 l/m 0,0 km/h (0 Bft) S 180 0 min 0,000 mm 25 W/m 13,1 C 14,7 C 3,2 km/h (1 Bft) 100 %
21.09.2014 08:40 14,8 C 14,7 C 14,8 C 90 % 1013,3 hPa 1,2 l/m 0,0 km/h (0 Bft) N 0 0 min 0,000 mm 12 W/m 13,2 C 14,8 C 0,0 km/h (0 Bft) 99 %
21.09.2014 08:50 14,8 C 14,8 C 14,8 C 90 % 1013,3 hPa 0,8 l/m 1,6 km/h (1 Bft) S 180 0 min 0,000 mm 11 W/m 13,2 C 14,8 C 3,2 km/h (1 Bft) 99 %
21.09.2014 09:00 14,8 C 14,8 C 14,8 C 90 % 1013,3 hPa 0,2 l/m 0,0 km/h (0 Bft) S 180 0 min 0,000 mm 16 W/m 13,2 C 14,8 C 1,6 km/h (1 Bft) 100 %
21.09.2014 09:10 14,9 C 14,8 C 14,9 C 90 % 1013,3 hPa 0,0 l/m 0,0 km/h (0 Bft) S 180 0 min 0,000 mm 21 W/m 13,3 C 14,9 C 1,6 km/h (1 Bft) 100 %
21.09.2014 09:20 15,0 C 14,9 C 15,0 C 90 % 1013,3 hPa 0,0 l/m 0,0 km/h (0 Bft) S 180 0 min 0,000 mm 30 W/m 13,4 C 15,0 C 1,6 km/h (1 Bft) 100 %
21.09.2014 09:30 15,1 C 14,9 C 15,1 C 90 % 1013,3 hPa 0,0 l/m 0,0 km/h (0 Bft) S 180 0 min 0,000 mm 37 W/m 13,5 C 15,1 C 4,8 km/h (1 Bft) 100 %
21.09.2014 09:40 15,1 C 15,1 C 15,1 C 90 % 1013,4 hPa 0,0 l/m 0,0 km/h (0 Bft) S-SW 202 0 min 0,000 mm 28 W/m 13,5 C 15,1 C 3,2 km/h (1 Bft) 100 %
21.09.2014 09:50 15,1 C 15,1 C 15,1 C 90 % 1013,4 hPa 0,0 l/m 1,6 km/h (1 Bft) W-SW 247 0 min 0,000 mm 39 W/m 13,5 C 15,1 C 6,4 km/h (2 Bft) 100 %
21.09.2014 10:00 15,3 C 15,1 C 15,3 C 90 % 1013,5 hPa 0,0 l/m 3,2 km/h (1 Bft) W 270 0 min 0,025 mm 53 W/m 13,7 C 15,3 C 14,5 km/h (3 Bft) 100 %
21.09.2014 10:10 15,4 C 15,3 C 15,4 C 90 % 1013,6 hPa 0,0 l/m 1,6 km/h (1 Bft) W 270 0 min 0,000 mm 88 W/m 13,8 C 15,4 C 11,3 km/h (2 Bft) 100 %
21.09.2014 10:20 15,6 C 15,4 C 15,6 C 90 % 1013,6 hPa 0,0 l/m 4,8 km/h (1 Bft) W 270 10 min 0,000 mm 167 W/m 14,0 C 15,6 C 12,9 km/h (3 Bft) 99 %
21.09.2014 10:30 15,8 C 15,6 C 15,8 C 90 % 1013,5 hPa 0,0 l/m 4,8 km/h (1 Bft) W 270 10 min 0,000 mm 214 W/m 14,2 C 15,8 C 11,3 km/h (2 Bft) 100 %
21.09.2014 10:40 15,8 C 15,8 C 15,8 C 90 % 1013,5 hPa 0,0 l/m 1,6 km/h (1 Bft) W 270 10 min 0,000 mm 185 W/m 14,2 C 15,8 C 8,0 km/h (2 Bft) 100 %
21.09.2014 10:50 15,9 C 15,8 C 15,9 C 90 % 1013,6 hPa 0,0 l/m 1,6 km/h (1 Bft) W 270 0 min 0,000 mm 74 W/m 14,3 C 15,9 C 8,0 km/h (2 Bft) 99 %
21.09.2014 11:00 15,8 C 15,8 C 15,9 C 90 % 1013,6 hPa 0,0 l/m 3,2 km/h (1 Bft) W 270 0 min 0,051 mm 127 W/m 14,2 C 15,8 C 11,3 km/h (2 Bft) 100 %
21.09.2014 11:10 15,9 C 15,8 C 15,9 C 90 % 1013,7 hPa 0,0 l/m 3,2 km/h (1 Bft) W 270 10 min 0,000 mm 181 W/m 14,3 C 15,9 C 14,5 km/h (3 Bft) 100 %
21.09.2014 11:20 16,0 C 15,8 C 16,0 C 90 % 1013,7 hPa 0,0 l/m 3,2 km/h (1 Bft) W 270 10 min 0,000 mm 186 W/m 14,4 C 16,0 C 11,3 km/h (2 Bft) 100 %
21.09.2014 11:30 16,1 C 16,0 C 16,1 C 90 % 1013,7 hPa 0,0 l/m 3,2 km/h (1 Bft) W 270 10 min 0,000 mm 229 W/m 14,5 C 16,1 C 14,5 km/h (3 Bft) 100 %
21.09.2014 11:40 16,2 C 16,1 C 16,2 C 90 % 1013,6 hPa 0,0 l/m 3,2 km/h (1 Bft) W 270 10 min 0,000 mm 206 W/m 14,6 C 16,2 C 14,5 km/h (3 Bft) 100 %
21.09.2014 11:50 16,2 C 16,2 C 16,2 C 89 % 1013,6 hPa 0,0 l/m 3,2 km/h (1 Bft) W 270 10 min 0,000 mm 332 W/m 14,4 C 16,2 C 11,3 km/h (2 Bft) 100 %
21.09.2014 12:00 16,6 C 16,2 C 16,6 C 89 % 1013,6 hPa 0,0 l/m 3,2 km/h (1 Bft) W-SW 247 10 min 0,102 mm 524 W/m 14,8 C 16,6 C 14,5 km/h (3 Bft) 100 %
21.09.2014 12:10 16,9 C 16,6 C 16,9 C 90 % 1013,6 hPa 0,2 l/m 4,8 km/h (1 Bft) W 270 10 min 0,000 mm 591 W/m 15,2 C 16,9 C 16,1 km/h (3 Bft) 100 %
21.09.2014 12:20 17,2 C 16,9 C 17,2 C 90 % 1013,6 hPa 0,0 l/m 4,8 km/h (1 Bft) SW 225 10 min 0,000 mm 302 W/m 15,5 C 17,2 C 17,7 km/h (3 Bft) 99 %
21.09.2014 12:30 17,6 C 17,2 C 17,6 C 90 % 1013,5 hPa 0,0 l/m 4,8 km/h (1 Bft) W 270 10 min 0,000 mm 387 W/m 15,9 C 17,6 C 20,9 km/h (4 Bft) 100 %
21.09.2014 12:40 17,5 C 17,5 C 17,7 C 90 % 1013,5 hPa 0,0 l/m 6,4 km/h (2 Bft) W 270 10 min 0,000 mm 257 W/m 15,8 C 17,5 C 16,1 km/h (3 Bft) 100 %
21.09.2014 12:50 17,4 C 17,4 C 17,7 C 90 % 1013,5 hPa 0,0 l/m 4,6 km/h (1 Bft) SW 236 10 min 0,000 mm 244 W/m 15,7 C 17,4 C 14,5 km/h (3 Bft) 100 %
21.09.2014 13:00 17,6 C 17,4 C 17,6 C 90 % 1013,4 hPa 0,0 l/m 4,5 km/h (1 Bft) NW 324 10 min 0,178 mm 415 W/m 15,9 C 17,6 C 11,3 km/h (2 Bft) 100 %
21.09.2014 13:10 17,8 C 17,6 C 17,8 C 89 % 1013,4 hPa 0,0 l/m 6,1 km/h (2 Bft) W-NW 297 0 min 0,000 mm 123 W/m 16,0 C 17,8 C 17,7 km/h (3 Bft) 100 %
21.09.2014 13:20 17,7 C 17,7 C 17,8 C 90 % 1013,4 hPa 0,0 l/m 2,4 km/h (1 Bft) NW 304 0 min 0,000 mm 98 W/m 16,0 C 17,7 C 8,0 km/h (2 Bft) 100 %
21.09.2014 13:30 17,5 C 17,5 C 17,7 C 90 % 1013,3 hPa 0,0 l/m 2,5 km/h (1 Bft) NW 312 0 min 0,000 mm 127 W/m 15,8 C 17,5 C 11,3 km/h (2 Bft) 100 %
21.09.2014 13:40 17,5 C 17,4 C 17,6 C 90 % 1013,3 hPa 0,0 l/m 1,2 km/h (1 Bft) W-NW 289 10 min 0,000 mm 204 W/m 15,8 C 17,5 C 9,7 km/h (2 Bft) 100 %
21.09.2014 13:50 17,6 C 17,5 C 17,6 C 90 % 1013,0 hPa 0,0 l/m 0,4 km/h (0 Bft) N 355 10 min 0,000 mm 158 W/m 15,9 C 17,6 C 4,8 km/h (1 Bft) 100 %
21.09.2014 14:00 17,6 C 17,6 C 17,7 C 89 % 1012,9 hPa 0,0 l/m 1,2 km/h (1 Bft) W 263 10 min 0,076 mm 237 W/m 15,8 C 17,6 C 9,7 km/h (2 Bft) 100 %
21.09.2014 14:10 17,8 C 17,6 C 17,8 C 88 % 1012,7 hPa 0,0 l/m 2,2 km/h (1 Bft) W 271 10 min 0,000 mm 392 W/m 15,8 C 17,8 C 9,7 km/h (2 Bft) 100 %
21.09.2014 14:20 18,3 C 17,8 C 18,3 C 89 % 1012,8 hPa 0,0 l/m 2,8 km/h (1 Bft) W 267 10 min 0,000 mm 673 W/m 16,5 C 18,3 C 12,9 km/h (3 Bft) 99 %
21.09.2014 14:30 18,9 C 18,3 C 18,9 C 87 % 1012,6 hPa 0,0 l/m 2,3 km/h (1 Bft) W-SW 243 10 min 0,000 mm 647 W/m 16,7 C 18,9 C 11,3 km/h (2 Bft) 100 %
21.09.2014 14:40 19,0 C 18,9 C 19,1 C 82 % 1012,7 hPa 0,0 l/m 4,5 km/h (1 Bft) W 260 10 min 0,000 mm 179 W/m 15,9 C 19,0 C 14,5 km/h (3 Bft) 100 %
21.09.2014 14:50 18,9 C 18,9 C 19,0 C 83 % 1012,6 hPa 0,0 l/m 6,8 km/h (2 Bft) W-SW 258 10 min 0,000 mm 279 W/m 15,9 C 18,7 C 16,1 km/h (3 Bft) 100 %
21.09.2014 15:00 19,0 C 18,9 C 19,0 C 83 % 1012,4 hPa 0,0 l/m 3,0 km/h (1 Bft) W-NW 288 10 min 0,228 mm 227 W/m 16,0 C 19,0 C 9,7 km/h (2 Bft) 100 %
21.09.2014 15:10 19,1 C 18,9 C 19,1 C 82 % 1012,2 hPa 0,0 l/m 2,3 km/h (1 Bft) NW 316 10 min 0,000 mm 195 W/m 16,0 C 19,1 C 9,7 km/h (2 Bft) 100 %
21.09.2014 15:20 19,2 C 19,1 C 19,2 C 83 % 1012,2 hPa 0,0 l/m 2,6 km/h (1 Bft) NW 304 0 min 0,000 mm 132 W/m 16,2 C 19,2 C 8,0 km/h (2 Bft) 100 %
21.09.2014 15:30 19,1 C 19,1 C 19,2 C 83 % 1012,1 hPa 0,0 l/m 1,6 km/h (1 Bft) NW 317 10 min 0,000 mm 202 W/m 16,1 C 19,1 C 16,1 km/h (3 Bft) 100 %
21.09.2014 15:40 19,1 C 19,0 C 19,1 C 83 % 1012,0 hPa 0,0 l/m 4,3 km/h (1 Bft) W 259 10 min 0,000 mm 234 W/m 16,1 C 19,1 C 11,3 km/h (2 Bft) 90 %
21.09.2014 15:50 19,1 C 19,1 C 19,1 C 82 % 1012,0 hPa 0,0 l/m 2,8 km/h (1 Bft) W-NW 288 10 min 0,000 mm 169 W/m 16,0 C 19,1 C 9,7 km/h (2 Bft) 100 %
21.09.2014 16:00 19,1 C 19,1 C 19,1 C 82 % 1011,8 hPa 0,0 l/m 0,5 km/h (0 Bft) W 264 10 min 0,000 mm 192 W/m 16,0 C 19,1 C 6,4 km/h (2 Bft) 100 %
21.09.2014 16:10 19,1 C 19,1 C 19,2 C 81 % 1012,0 hPa 0,0 l/m 2,9 km/h (1 Bft) W-NW 285 0 min 0,127 mm 54 W/m 15,8 C 19,1 C 9,7 km/h (2 Bft) 100 %
21.09.2014 16:20 18,8 C 18,8 C 19,1 C 82 % 1012,1 hPa 0,0 l/m 1,3 km/h (1 Bft) W 279 0 min 0,000 mm 28 W/m 15,7 C 18,8 C 8,0 km/h (2 Bft) 100 %
21.09.2014 16:30 18,6 C 18,6 C 18,8 C 83 % 1012,4 hPa 0,0 l/m 4,4 km/h (1 Bft) NW 322 0 min 0,000 mm 0 W/m 15,7 C 18,6 C 24,1 km/h (4 Bft) 100 %
21.09.2014 16:40 17,5 C 17,5 C 18,6 C 85 % 1012,7 hPa 1,8 l/m 10,1 km/h (2 Bft) NW 320 0 min 0,000 mm 0 W/m 14,9 C 15,8 C 32,2 km/h (5 Bft) 99 %
21.09.2014 16:50 16,6 C 16,6 C 17,5 C 88 % 1012,7 hPa 2,6 l/m 5,2 km/h (1 Bft) N-NW 327 0 min 0,000 mm 5 W/m 14,6 C 16,6 C 19,3 km/h (3 Bft) 100 %
21.09.2014 17:00 16,1 C 16,1 C 16,6 C 90 % 1012,7 hPa 0,4 l/m 1,9 km/h (1 Bft) NW 315 0 min 0,026 mm 9 W/m 14,5 C 16,1 C 9,7 km/h (2 Bft) 100 %
21.09.2014 17:10 15,8 C 15,8 C 16,1 C 90 % 1013,0 hPa 0,8 l/m 8,1 km/h (2 Bft) NW 311 0 min 0,000 mm 16 W/m 14,2 C 14,9 C 25,7 km/h (4 Bft) 100 %
21.09.2014 17:20 15,1 C 15,1 C 15,8 C 90 % 1013,0 hPa 0,0 l/m 12,6 km/h (3 Bft) N-NW 338 0 min 0,000 mm 53 W/m 13,5 C 12,2 C 30,6 km/h (5 Bft) 100 %
21.09.2014 17:30 14,8 C 14,8 C 15,1 C 90 % 1012,9 hPa 0,4 l/m 3,1 km/h (1 Bft) NW 311 0 min 0,000 mm 47 W/m 13,2 C 14,8 C 14,5 km/h (3 Bft) 100 %
21.09.2014 17:40 14,7 C 14,7 C 14,8 C 90 % 1013,1 hPa 0,6 l/m 2,0 km/h (1 Bft) N 349 0 min 0,000 mm 28 W/m 13,1 C 14,7 C 11,3 km/h (2 Bft) 100 %
21.09.2014 17:50 14,3 C 14,3 C 14,7 C 90 % 1013,1 hPa 0,4 l/m 2,6 km/h (1 Bft) N-NW 338 0 min 0,000 mm 26 W/m 12,7 C 14,3 C 14,5 km/h (3 Bft) 100 %
21.09.2014 18:00 14,0 C 14,0 C 14,3 C 90 % 1013,3 hPa 0,0 l/m 0,3 km/h (0 Bft) N-NW 343 0 min 0,025 mm 28 W/m 12,4 C 14,0 C 8,0 km/h (2 Bft) 100 %
21.09.2014 18:10 13,9 C 13,9 C 14,0 C 90 % 1013,5 hPa 0,0 l/m 2,5 km/h (1 Bft) N-NW 330 0 min 0,000 mm 21 W/m 12,3 C 13,9 C 9,7 km/h (2 Bft) 100 %
21.09.2014 18:20 13,8 C 13,8 C 13,9 C 90 % 1013,7 hPa 0,2 l/m 0,9 km/h (0 Bft) NW 309 0 min 0,000 mm 12 W/m 12,2 C 13,8 C 8,0 km/h (2 Bft) 100 %
21.09.2014 18:30 13,7 C 13,7 C 13,8 C 90 % 1014,0 hPa 0,6 l/m 1,8 km/h (1 Bft) NW 321 0 min 0,000 mm 11 W/m 12,1 C 13,7 C 8,0 km/h (2 Bft) 100 %
21.09.2014 18:40 13,6 C 13,6 C 13,7 C 90 % 1014,0 hPa 0,2 l/m 0,6 km/h (0 Bft) N-NW 342 0 min 0,000 mm 7 W/m 12,0 C 13,6 C 6,4 km/h (2 Bft) 91 %
21.09.2014 18:50 13,6 C 13,6 C 13,6 C 90 % 1014,1 hPa 0,4 l/m 0,0 km/h (0 Bft) N 9 0 min 0,000 mm 0 W/m 12,0 C 13,6 C 1,6 km/h (1 Bft) 100 %
21.09.2014 19:00 13,5 C 13,5 C 13,6 C 90 % 1014,1 hPa 0,2 l/m 0,0 km/h (0 Bft) N-NW 338 0 min 0,000 mm 0 W/m 11,9 C 13,5 C 1,6 km/h (1 Bft) 100 %
21.09.2014 19:10 13,5 C 13,5 C 13,5 C 90 % 1014,4 hPa 0,4 l/m 0,2 km/h (0 Bft) N-NW 339 0 min 0,000 mm 0 W/m 11,9 C 13,5 C 3,2 km/h (1 Bft) 100 %
21.09.2014 19:20 13,4 C 13,4 C 13,5 C 90 % 1014,6 hPa 0,2 l/m 0,0 km/h (0 Bft) N-NW 339 0 min 0,000 mm 0 W/m 11,8 C 13,4 C 0,0 km/h (0 Bft) 99 %
21.09.2014 19:30 13,3 C 13,3 C 13,4 C 90 % 1014,4 hPa 0,4 l/m 0,0 km/h (0 Bft) N-NW 339 0 min 0,000 mm 0 W/m 11,7 C 13,3 C 0,0 km/h (0 Bft) 100 %
21.09.2014 19:40 13,3 C 13,3 C 13,3 C 90 % 1014,7 hPa 0,4 l/m 0,0 km/h (0 Bft) N-NW 339 0 min 0,000 mm 0 W/m 11,7 C 13,3 C 0,0 km/h (0 Bft) 100 %
21.09.2014 19:50 13,3 C 13,3 C 13,3 C 90 % 1014,8 hPa 0,2 l/m 0,0 km/h (0 Bft) N-NW 339 0 min 0,000 mm 0 W/m 11,7 C 13,3 C 0,0 km/h (0 Bft) 100 %
21.09.2014 20:00 13,3 C 13,3 C 13,3 C 90 % 1014,9 hPa 0,0 l/m 0,0 km/h (0 Bft) N-NW 339 0 min 0,000 mm 0 W/m 11,7 C 13,3 C 0,0 km/h (0 Bft) 100 %
21.09.2014 20:10 13,3 C 13,3 C 13,3 C 90 % 1014,9 hPa 0,0 l/m 0,0 km/h (0 Bft) N-NW 339 0 min 0,000 mm 0 W/m 11,7 C 13,3 C 0,0 km/h (0 Bft) 100 %
21.09.2014 20:20 13,3 C 13,3 C 13,3 C 90 % 1015,0 hPa 0,2 l/m 0,1 km/h (0 Bft) N-NW 339 0 min 0,000 mm 0 W/m 11,7 C 13,3 C 3,2 km/h (1 Bft) 100 %
21.09.2014 20:30 13,3 C 13,3 C 13,4 C 90 % 1015,2 hPa 0,0 l/m 0,0 km/h (0 Bft) N-NW 339 0 min 0,000 mm 0 W/m 11,7 C 13,3 C 1,6 km/h (1 Bft) 100 %
21.09.2014 20:40 13,4 C 13,3 C 13,4 C 90 % 1015,3 hPa 0,0 l/m 0,3 km/h (0 Bft) N-NW 339 0 min 0,000 mm 0 W/m 11,8 C 13,4 C 3,2 km/h (1 Bft) 100 %
21.09.2014 20:50 13,4 C 13,3 C 13,4 C 90 % 1015,5 hPa 0,2 l/m 0,6 km/h (0 Bft) N-NW 333 0 min 0,000 mm 0 W/m 11,8 C 13,4 C 4,8 km/h (1 Bft) 99 %
21.09.2014 21:00 13,4 C 13,4 C 13,4 C 90 % 1015,6 hPa 0,2 l/m 1,4 km/h (1 Bft) NW 314 0 min 0,000 mm 0 W/m 11,8 C 13,4 C 9,7 km/h (2 Bft) 99 %
21.09.2014 21:10 13,4 C 13,4 C 13,4 C 90 % 1015,7 hPa 0,0 l/m 3,2 km/h (1 Bft) NW 315 0 min 0,000 mm 0 W/m 11,8 C 13,4 C 9,7 km/h (2 Bft) 100 %
21.09.2014 21:20 13,3 C 13,3 C 13,4 C 90 % 1015,6 hPa 0,0 l/m 0,0 km/h (0 Bft) NW 315 0 min 0,000 mm 0 W/m 11,7 C 13,3 C 6,4 km/h (2 Bft) 99 %
21.09.2014 21:30 13,3 C 13,3 C 13,3 C 90 % 1015,8 hPa 0,0 l/m 1,6 km/h (1 Bft) N-NW 337 0 min 0,000 mm 0 W/m 11,7 C 13,3 C 6,4 km/h (2 Bft) 99 %
21.09.2014 21:40 13,3 C 13,2 C 13,3 C 90 % 1015,8 hPa 0,0 l/m 1,6 km/h (1 Bft) NW 315 0 min 0,000 mm 0 W/m 11,7 C 13,3 C 6,4 km/h (2 Bft) 99 %
21.09.2014 21:50 13,2 C 13,2 C 13,2 C 90 % 1015,8 hPa 0,0 l/m 0,0 km/h (0 Bft) NW 315 0 min 0,000 mm 0 W/m 11,6 C 13,2 C 1,6 km/h (1 Bft) 100 %
21.09.2014 22:00 13,1 C 13,1 C 13,2 C 90 % 1016,1 hPa 0,0 l/m 1,6 km/h (1 Bft) NW 315 0 min 0,000 mm 0 W/m 11,5 C 13,1 C 8,0 km/h (2 Bft) 100 %
21.09.2014 22:10 13,1 C 13,1 C 13,1 C 90 % 1016,3 hPa 0,0 l/m 3,2 km/h (1 Bft) NW 315 0 min 0,000 mm 0 W/m 11,5 C 13,1 C 8,0 km/h (2 Bft) 100 %
21.09.2014 22:20 13,1 C 13,1 C 13,1 C 90 % 1016,5 hPa 0,0 l/m 0,0 km/h (0 Bft) NW 315 0 min 0,000 mm 0 W/m 11,5 C 13,1 C 4,8 km/h (1 Bft) 100 %
21.09.2014 22:30 12,9 C 12,9 C 13,1 C 90 % 1016,5 hPa 0,0 l/m 1,6 km/h (1 Bft) NW 315 0 min 0,000 mm 0 W/m 11,3 C 12,9 C 8,0 km/h (2 Bft) 100 %
21.09.2014 22:40 12,9 C 12,9 C 12,9 C 90 % 1016,4 hPa 0,0 l/m 0,0 km/h (0 Bft) N 360 0 min 0,000 mm 0 W/m 11,3 C 12,9 C 4,8 km/h (1 Bft) 99 %
21.09.2014 22:50 12,8 C 12,8 C 12,9 C 90 % 1016,5 hPa 0,0 l/m 1,6 km/h (1 Bft) N-NW 337 0 min 0,000 mm 0 W/m 11,2 C 12,8 C 11,3 km/h (2 Bft) 100 %
21.09.2014 23:00 12,7 C 12,7 C 12,8 C 90 % 1016,5 hPa 0,0 l/m 1,6 km/h (1 Bft) N-NW 337 0 min 0,000 mm 0 W/m 11,1 C 12,7 C 8,0 km/h (2 Bft) 100 %
21.09.2014 23:10 12,6 C 12,6 C 12,7 C 90 % 1016,7 hPa 0,0 l/m 0,0 km/h (0 Bft) N 360 0 min 0,000 mm 0 W/m 11,0 C 12,6 C 8,0 km/h (2 Bft) 100 %
21.09.2014 23:20 12,5 C 12,5 C 12,6 C 90 % 1016,7 hPa 0,0 l/m 1,6 km/h (1 Bft) NW 315 0 min 0,000 mm 0 W/m 10,9 C 12,5 C 6,4 km/h (2 Bft) 100 %
21.09.2014 23:30 12,4 C 12,4 C 12,5 C 90 % 1016,7 hPa 0,0 l/m 1,6 km/h (1 Bft) NW 315 0 min 0,000 mm 0 W/m 10,8 C 12,4 C 14,5 km/h (3 Bft) 100 %
21.09.2014 23:40 12,4 C 12,4 C 12,4 C 90 % 1016,9 hPa 0,0 l/m 1,6 km/h (1 Bft) NW 315 0 min 0,000 mm 0 W/m 10,8 C 12,4 C 6,4 km/h (2 Bft) 100 %
21.09.2014 23:50 12,4 C 12,4 C 12,4 C 90 % 1017,0 hPa 0,0 l/m 4,8 km/h (1 Bft) NW 315 0 min 0,000 mm 0 W/m 10,8 C 12,4 C 11,3 km/h (2 Bft) 100 %
_ Min-Zeit 23:30 23:30 23:40 16:10 16:00 - 00:00 - - - - - 23:30 17:20 00:00 15:40
Minimum _ 12,4 C 12,4 C 12,4 C 81 % 1011,8 hPa - 0,0 km/h (0 Bft) - - - - - 10,8 C 12,2 C 0,0 km/h (0 Bft) 90 %
_ Max-Zeit 15:20 15:20 15:20 00:00 23:50 16:50 17:20 - - 10:20 15:00 14:20 14:30 15:20 16:40 00:10
Maximum _ 19,2 C 19,1 C 19,2 C 90 % 1017,0 hPa 2,6 l/m 12,6 km/h
N-NW (3 Bft)
- - 10 min 0,228 mm 673 W/m 16,7 C 19,2 C 32,2 km/h
N-NW (5 Bft)
100 %
Durchschnitt _ 15,2 C 15,1 C 15,2 C 89 % 1013,9 hPa #23,2 l/m 1,6 km/h (1 Bft) W - #4:50 h #0,838 mm 152 W/m 13,4 C 15,1 C 7,3 km/h (2 Bft) 100 %
PRIVATE WETTERSTATION BILLIGHEIM-ALLFELD - www.neckar-odenwald-wetter.de - Holger Sonntag